createdAt,value
2019-02-16T00:01:16.737Z,6.92
2019-02-16T00:03:44.927Z,6.92
2019-02-16T00:06:13.106Z,6.94
2019-02-16T00:08:41.767Z,6.94
2019-02-16T00:11:09.809Z,6.94
2019-02-16T00:13:37.883Z,6.94
2019-02-16T00:16:07.732Z,6.96
2019-02-16T00:18:36.322Z,6.96
2019-02-16T00:21:04.541Z,6.95
2019-02-16T00:23:32.749Z,6.93
2019-02-16T00:26:01.216Z,6.94
2019-02-16T00:28:29.257Z,6.93
2019-02-16T00:30:57.535Z,6.94
2019-02-16T00:33:25.694Z,6.95
2019-02-16T00:35:53.755Z,6.96
2019-02-16T00:38:21.852Z,6.96
2019-02-16T00:40:50.298Z,6.97
2019-02-16T00:43:19.772Z,6.98
2019-02-16T00:45:47.794Z,6.98
2019-02-16T00:48:15.868Z,6.97
2019-02-16T00:50:43.919Z,6.97
2019-02-16T00:53:12.073Z,6.96
2019-02-16T00:55:40.129Z,6.93
2019-02-16T00:58:08.184Z,6.95
2019-02-16T01:00:36.633Z,6.94
2019-02-16T01:03:04.683Z,6.91
2019-02-16T01:05:33.075Z,6.90
2019-02-16T01:08:01.116Z,6.87
2019-02-16T01:10:30.337Z,6.86
2019-02-16T01:12:58.394Z,6.84
2019-02-16T01:15:26.571Z,6.83
2019-02-16T01:17:55.007Z,6.79
2019-02-16T01:20:24.035Z,6.77
2019-02-16T01:22:52.488Z,6.74
2019-02-16T01:25:20.670Z,6.71
2019-02-16T01:27:48.837Z,6.67
2019-02-16T01:30:16.890Z,6.64
2019-02-16T01:32:45.284Z,6.61
2019-02-16T01:35:14.092Z,6.60
2019-02-16T01:37:42.358Z,6.55
2019-02-16T01:40:10.768Z,6.52
2019-02-16T01:42:38.851Z,6.48
2019-02-16T01:45:08.835Z,6.45
2019-02-16T01:47:36.879Z,6.44
2019-02-16T01:50:06.089Z,6.42
2019-02-16T01:52:34.445Z,6.39
2019-02-16T01:55:03.051Z,6.37
2019-02-16T01:57:31.127Z,6.35
2019-02-16T02:00:01.349Z,6.32
2019-02-16T02:02:29.422Z,6.31
2019-02-16T02:04:58.489Z,6.30
2019-02-16T02:07:26.517Z,6.27
2019-02-16T02:09:54.685Z,6.25
2019-02-16T02:12:22.639Z,6.23
2019-02-16T02:14:50.700Z,6.23
2019-02-16T02:17:18.825Z,6.21
2019-02-16T02:19:46.975Z,6.20
2019-02-16T02:22:15.032Z,6.19
2019-02-16T02:24:43.444Z,6.18
2019-02-16T02:27:11.513Z,6.16
2019-02-16T02:29:39.606Z,6.16
2019-02-16T02:32:08.860Z,6.14
2019-02-16T02:34:36.935Z,6.12
2019-02-16T02:37:04.993Z,6.12
2019-02-16T02:39:33.087Z,6.10
2019-02-16T02:42:01.130Z,6.10
2019-02-16T02:44:29.221Z,6.10
2019-02-16T02:46:58.473Z,6.10
2019-02-16T02:49:26.511Z,6.08
2019-02-16T02:51:54.527Z,6.07
2019-02-16T02:54:22.766Z,6.05
2019-02-16T02:56:50.848Z,6.04
2019-02-16T02:59:18.905Z,6.02
2019-02-16T03:01:47.163Z,5.99
2019-02-16T03:04:15.367Z,5.97
2019-02-16T03:06:43.418Z,5.95
2019-02-16T03:09:11.469Z,5.93
2019-02-16T03:11:39.520Z,5.91
2019-02-16T03:14:07.864Z,5.89
2019-02-16T03:16:35.910Z,5.84
2019-02-16T03:19:03.952Z,5.80
2019-02-16T03:21:32.002Z,5.77
2019-02-16T03:24:00.065Z,5.74
2019-02-16T03:27:01.562Z,5.68
2019-02-16T03:30:15.817Z,5.67
2019-02-16T03:33:49.211Z,5.65
2019-02-16T03:37:06.780Z,5.61
2019-02-16T03:39:40.510Z,5.56
2019-02-16T03:42:08.945Z,5.56
2019-02-16T03:44:37.107Z,5.56
2019-02-16T03:47:05.193Z,5.55
2019-02-16T03:49:33.246Z,5.54
2019-02-16T03:52:01.334Z,5.52
2019-02-16T03:54:29.385Z,5.50
2019-02-16T03:56:58.536Z,5.47
2019-02-16T03:59:26.652Z,5.47
2019-02-16T04:01:54.717Z,5.45
2019-02-16T04:04:23.079Z,5.41
2019-02-16T04:06:52.851Z,5.41
2019-02-16T04:09:20.923Z,5.41
2019-02-16T04:11:49.303Z,5.40
2019-02-16T04:14:17.583Z,5.38
2019-02-16T04:16:45.943Z,5.36
2019-02-16T04:19:14.378Z,5.35
2019-02-16T04:21:42.432Z,5.32
2019-02-16T04:24:10.856Z,5.27
2019-02-16T04:26:40.693Z,5.24
2019-02-16T04:29:08.871Z,5.19
2019-02-16T04:31:37.213Z,5.18
2019-02-16T04:34:05.630Z,5.13
2019-02-16T04:36:34.082Z,5.11
2019-02-16T04:39:04.722Z,5.10
2019-02-16T04:41:33.128Z,5.06
2019-02-16T04:44:01.180Z,5.02
2019-02-16T04:46:29.417Z,4.98
2019-02-16T04:48:57.849Z,4.97
2019-02-16T04:51:25.922Z,4.93
2019-02-16T04:53:53.976Z,4.91
2019-02-16T04:56:23.494Z,4.90
2019-02-16T04:58:51.737Z,4.86
2019-02-16T05:01:19.791Z,4.83
2019-02-16T05:03:48.177Z,4.82
2019-02-16T05:06:18.481Z,4.81
2019-02-16T05:08:46.690Z,4.77
2019-02-16T05:11:15.078Z,4.73
2019-02-16T05:13:43.461Z,4.69
2019-02-16T05:16:11.540Z,4.67
2019-02-16T05:18:39.910Z,4.64
2019-02-16T05:21:08.016Z,4.62
2019-02-16T05:23:36.105Z,4.63
2019-02-16T05:26:04.548Z,4.59
2019-02-16T05:28:32.672Z,4.59
2019-02-16T05:31:00.753Z,4.60
2019-02-16T05:33:29.107Z,4.57
2019-02-16T05:35:57.500Z,4.53
2019-02-16T05:38:25.563Z,4.54
2019-02-16T05:40:54.011Z,4.55
2019-02-16T05:43:22.097Z,4.51
2019-02-16T05:45:50.209Z,4.49
2019-02-16T05:48:20.050Z,4.45
2019-02-16T05:50:49.196Z,4.44
2019-02-16T05:53:17.251Z,4.40
2019-02-16T05:55:45.319Z,4.38
2019-02-16T05:58:13.376Z,4.37
2019-02-16T06:00:41.558Z,4.35
2019-02-16T06:03:09.489Z,4.32
2019-02-16T06:05:37.526Z,4.30
2019-02-16T06:08:06.277Z,4.27
2019-02-16T06:10:34.617Z,4.25
2019-02-16T06:13:02.703Z,4.25
2019-02-16T06:15:30.732Z,4.25
2019-02-16T06:17:58.889Z,4.23
2019-02-16T06:20:30.161Z,4.21
2019-02-16T06:23:04.301Z,4.21
2019-02-16T06:25:29.133Z,4.20
2019-02-16T06:27:57.689Z,4.20
2019-02-16T06:30:26.072Z,4.20
2019-02-16T06:32:56.856Z,4.17
2019-02-16T06:35:40.380Z,4.17
2019-02-16T06:38:09.575Z,4.19
2019-02-16T06:40:37.639Z,4.18
2019-02-16T06:43:06.068Z,4.18
2019-02-16T06:45:34.397Z,4.17
2019-02-16T06:48:02.780Z,4.19
2019-02-16T06:50:36.785Z,4.19
2019-02-16T06:53:01.146Z,4.19
2019-02-16T06:55:39.786Z,4.19
2019-02-16T06:58:07.860Z,4.19
2019-02-16T07:00:35.941Z,4.19
2019-02-16T07:03:03.990Z,4.20
2019-02-16T07:05:32.056Z,4.20
2019-02-16T07:08:00.165Z,4.22
2019-02-16T07:10:28.316Z,4.22
2019-02-16T07:12:58.610Z,4.25
2019-02-16T07:15:26.588Z,4.29
2019-02-16T07:18:09.501Z,4.36
2019-02-16T07:20:37.659Z,4.42
2019-02-16T07:23:05.626Z,4.50
2019-02-16T07:25:33.685Z,4.58
2019-02-16T07:28:01.966Z,4.68
2019-02-16T07:30:30.002Z,4.78
2019-02-16T07:32:59.915Z,4.94
2019-02-16T07:35:27.989Z,5.11
2019-02-16T07:37:56.379Z,5.28
2019-02-16T07:40:24.494Z,5.48
2019-02-16T07:42:58.800Z,5.67
2019-02-16T07:45:54.571Z,5.87
2019-02-16T07:48:51.489Z,6.11
2019-02-16T07:51:48.648Z,6.36
2019-02-16T07:54:36.646Z,6.65
2019-02-16T07:57:09.767Z,6.97
2019-02-16T07:59:55.942Z,7.31
2019-02-16T08:02:42.034Z,7.57
2019-02-16T08:05:15.947Z,7.89
2019-02-16T08:08:12.617Z,8.21
2019-02-16T08:11:15.102Z,8.53
2019-02-16T08:14:02.794Z,8.86
2019-02-16T08:16:52.670Z,9.18
2019-02-16T08:19:52.088Z,9.54
2019-02-16T08:22:30.284Z,9.90
2019-02-16T08:25:10.489Z,10.28
2019-02-16T08:28:00.912Z,10.60
2019-02-16T08:30:39.331Z,10.98
2019-02-16T08:33:31.070Z,11.38
2019-02-16T08:36:21.801Z,11.74
2019-02-16T08:39:08.312Z,12.12
2019-02-16T08:41:58.645Z,12.47
2019-02-16T08:44:49.450Z,12.77
2019-02-16T08:47:35.988Z,13.08
2019-02-16T08:50:22.826Z,13.43
2019-02-16T08:53:00.290Z,13.72
2019-02-16T08:55:47.119Z,14.03
2019-02-16T08:58:32.697Z,14.40
2019-02-16T09:01:19.902Z,14.73
2019-02-16T09:03:54.452Z,15.07
2019-02-16T09:06:51.200Z,15.36
2019-02-16T09:09:51.042Z,15.61
2019-02-16T09:12:38.714Z,15.98
2019-02-16T09:15:18.605Z,16.28
2019-02-16T09:18:09.871Z,16.46
2019-02-16T09:21:04.103Z,16.62
2019-02-16T09:23:59.448Z,16.60
2019-02-16T09:26:52.742Z,16.57
2019-02-16T09:29:55.419Z,16.79
2019-02-16T09:32:43.076Z,16.96
2019-02-16T09:35:33.953Z,17.21
2019-02-16T09:38:33.644Z,17.45
2019-02-16T09:41:30.106Z,17.44
2019-02-16T09:44:16.712Z,17.58
2019-02-16T09:47:04.666Z,17.95
2019-02-16T09:49:51.108Z,18.39
2019-02-16T09:52:25.506Z,18.85
2019-02-16T09:55:21.963Z,19.20
2019-02-16T09:58:08.452Z,19.37
2019-02-16T10:00:45.885Z,19.67
2019-02-16T10:03:29.520Z,20.08
2019-02-16T10:06:17.199Z,20.56
2019-02-16T10:09:05.037Z,20.88
2019-02-16T10:11:56.355Z,21.29
2019-02-16T10:14:34.032Z,21.75
2019-02-16T10:17:10.006Z,22.18
2019-02-16T10:19:51.931Z,22.55
2019-02-16T10:22:46.200Z,22.87
2019-02-16T10:25:33.853Z,23.09
2019-02-16T10:28:30.870Z,23.01
2019-02-16T10:31:22.832Z,23.08
2019-02-16T10:34:10.475Z,23.23
2019-02-16T10:37:00.730Z,23.33
2019-02-16T10:39:36.416Z,23.49
2019-02-16T10:42:30.255Z,23.75
2019-02-16T10:45:17.923Z,24.06
2019-02-16T10:47:57.584Z,24.45
2019-02-16T10:51:04.356Z,24.83
2019-02-16T10:53:41.369Z,25.25
2019-02-16T10:56:29.717Z,25.68
2019-02-16T10:59:26.474Z,25.94
2019-02-16T11:02:23.085Z,26.19
2019-02-16T11:05:09.507Z,26.20
2019-02-16T11:07:57.170Z,26.31
2019-02-16T11:10:40.734Z,26.60
2019-02-16T11:13:27.236Z,26.98
2019-02-16T11:16:21.214Z,27.27
2019-02-16T11:19:14.367Z,27.61
2019-02-16T11:22:01.195Z,28.01
2019-02-16T11:24:50.035Z,28.42
2019-02-16T11:27:36.505Z,28.72
2019-02-16T11:30:11.964Z,28.91
2019-02-16T11:32:53.179Z,29.13
2019-02-16T11:35:33.738Z,29.36
2019-02-16T11:38:21.560Z,29.52
2019-02-16T11:41:16.868Z,29.80
2019-02-16T11:44:01.483Z,30.26
2019-02-16T11:46:54.848Z,30.72
2019-02-16T11:49:45.773Z,31.20
2019-02-16T11:52:39.441Z,31.61
2019-02-16T11:55:24.859Z,31.96
2019-02-16T11:58:12.945Z,32.28
2019-02-16T12:01:01.219Z,32.43
2019-02-16T12:03:57.496Z,32.73
2019-02-16T12:06:31.111Z,33.09
2019-02-16T12:09:10.210Z,33.38
2019-02-16T12:11:54.619Z,33.61
2019-02-16T12:14:45.313Z,33.85
2019-02-16T12:17:27.486Z,34.02
2019-02-16T12:20:04.868Z,34.16
2019-02-16T12:22:56.292Z,34.29
2019-02-16T12:25:46.969Z,34.38
2019-02-16T12:28:37.705Z,34.42
2019-02-16T12:31:15.617Z,34.43
2019-02-16T12:34:02.107Z,34.39
2019-02-16T12:36:55.428Z,34.38
2019-02-16T12:39:29.989Z,34.35
2019-02-16T12:42:17.702Z,34.24
2019-02-16T12:44:58.202Z,34.13
2019-02-16T12:47:36.001Z,34.14
2019-02-16T12:50:16.455Z,34.26
2019-02-16T12:53:04.152Z,34.39
2019-02-16T12:55:45.265Z,34.48
2019-02-16T12:58:19.003Z,34.44
2019-02-16T13:01:25.292Z,34.58
2019-02-16T13:04:04.174Z,34.72
2019-02-16T13:06:44.867Z,34.92
2019-02-16T13:09:18.671Z,35.09
2019-02-16T13:12:09.676Z,35.23
2019-02-16T13:15:02.758Z,35.25
2019-02-16T13:17:49.183Z,35.15
2019-02-16T13:20:42.969Z,35.13
2019-02-16T13:23:40.618Z,35.08
2019-02-16T13:26:31.359Z,35.16
2019-02-16T13:29:20.910Z,35.34
2019-02-16T13:32:08.819Z,35.54
2019-02-16T13:34:47.109Z,35.51
2019-02-16T13:37:26.741Z,35.48
2019-02-16T13:40:05.765Z,35.39
2019-02-16T13:42:42.543Z,35.32
2019-02-16T13:45:33.532Z,35.24
2019-02-16T13:48:27.606Z,35.01
2019-02-16T13:51:15.268Z,35.00
2019-02-16T13:54:12.288Z,35.07
2019-02-16T13:57:12.259Z,35.22
2019-02-16T13:59:59.960Z,35.34
2019-02-16T14:02:40.643Z,35.45
2019-02-16T14:05:14.938Z,35.55
2019-02-16T14:08:06.032Z,35.37
2019-02-16T14:10:56.817Z,35.31
2019-02-16T14:13:43.156Z,35.30
2019-02-16T14:16:31.103Z,35.25
2019-02-16T14:18:59.146Z,35.20
2019-02-16T14:21:27.210Z,35.19
2019-02-16T14:23:56.943Z,35.18
2019-02-16T14:26:25.071Z,35.20
2019-02-16T14:28:53.143Z,35.27
2019-02-16T14:31:28.284Z,35.35
2019-02-16T14:33:51.489Z,35.38
2019-02-16T14:36:19.627Z,35.34
2019-02-16T14:39:04.941Z,35.24
2019-02-16T14:41:33.886Z,35.15
2019-02-16T14:44:02.019Z,35.08
2019-02-16T14:46:30.120Z,34.97
2019-02-16T14:48:58.233Z,34.82
2019-02-16T14:51:26.959Z,34.62
2019-02-16T14:53:55.024Z,34.40
2019-02-16T14:56:25.903Z,34.24
2019-02-16T14:58:54.426Z,34.07
2019-02-16T15:01:22.658Z,33.91
2019-02-16T15:03:50.921Z,33.73
2019-02-16T15:06:20.626Z,33.58
2019-02-16T15:08:48.737Z,33.47
2019-02-16T15:11:17.052Z,33.31
2019-02-16T15:13:46.448Z,33.16
2019-02-16T15:16:14.846Z,33.03
2019-02-16T15:18:43.188Z,32.89
2019-02-16T15:21:11.252Z,32.76
2019-02-16T15:23:39.983Z,32.59
2019-02-16T15:26:09.663Z,32.45
2019-02-16T15:28:37.941Z,32.31
2019-02-16T15:31:06.370Z,32.25
2019-02-16T15:33:34.927Z,32.19
2019-02-16T15:36:03.008Z,32.11
2019-02-16T15:38:33.205Z,32.01
2019-02-16T15:41:01.571Z,31.91
2019-02-16T15:43:31.541Z,31.78
2019-02-16T15:46:00.328Z,31.62
2019-02-16T15:48:29.178Z,31.45
2019-02-16T15:50:57.549Z,31.32
2019-02-16T15:53:25.636Z,31.19
2019-02-16T15:55:53.681Z,31.05
2019-02-16T15:58:21.819Z,30.89
2019-02-16T16:00:50.036Z,30.73
2019-02-16T16:03:18.282Z,30.53
2019-02-16T16:05:46.567Z,30.35
2019-02-16T16:08:37.296Z,30.12
2019-02-16T16:11:09.380Z,29.86
2019-02-16T16:14:00.033Z,29.53
2019-02-16T16:16:42.823Z,29.24
2019-02-16T16:19:39.652Z,28.90
2019-02-16T16:22:16.771Z,28.54
2019-02-16T16:25:04.379Z,28.13
2019-02-16T16:28:00.893Z,27.75
2019-02-16T16:30:50.453Z,27.36
2019-02-16T16:33:47.200Z,26.95
2019-02-16T16:36:21.561Z,26.59
2019-02-16T16:39:08.073Z,26.22
2019-02-16T16:41:59.628Z,25.91
2019-02-16T16:44:42.274Z,25.56
2019-02-16T16:47:36.230Z,25.21
2019-02-16T16:50:27.213Z,24.87
2019-02-16T16:53:13.649Z,24.53
2019-02-16T16:56:07.176Z,24.20
2019-02-16T16:58:42.786Z,23.89
2019-02-16T17:01:17.287Z,23.56
2019-02-16T17:03:52.451Z,23.28
2019-02-16T17:06:46.875Z,23.00
2019-02-16T17:09:24.413Z,22.74
2019-02-16T17:12:34.579Z,22.43
2019-02-16T17:15:18.423Z,22.13
2019-02-16T17:17:51.508Z,21.76
2019-02-16T17:20:31.449Z,21.33
2019-02-16T17:23:18.325Z,20.95
2019-02-16T17:29:09.506Z,20.30
2019-02-16T17:31:45.411Z,19.98
2019-02-16T17:34:33.927Z,19.70
2019-02-16T17:37:19.224Z,19.48
2019-02-16T17:40:16.296Z,19.24
2019-02-16T17:43:07.621Z,19.00
2019-02-16T17:45:59.451Z,18.75
2019-02-16T17:48:46.554Z,18.52
2019-02-16T17:51:51.872Z,18.22
2019-02-16T17:54:32.255Z,17.93
2019-02-16T17:57:20.970Z,17.61
2019-02-16T18:00:13.838Z,17.38
2019-02-16T18:03:00.757Z,17.13
2019-02-16T18:05:41.408Z,16.88
2019-02-16T18:08:27.896Z,16.63
2019-02-16T18:11:16.013Z,16.38
2019-02-16T18:14:10.651Z,16.11
2019-02-16T18:16:50.422Z,15.86
2019-02-16T18:19:26.573Z,15.63
2019-02-16T18:22:07.606Z,15.43
2019-02-16T18:25:02.124Z,15.26
2019-02-16T18:27:41.459Z,15.07
2019-02-16T18:30:27.983Z,14.86
2019-02-16T18:33:16.355Z,14.68
2019-02-16T18:36:08.171Z,14.49
2019-02-16T18:38:43.078Z,14.33
2019-02-16T18:41:35.083Z,14.16
2019-02-16T18:44:38.587Z,14.03
2019-02-16T18:47:46.344Z,13.85
2019-02-16T18:50:27.836Z,13.73
2019-02-16T18:53:21.580Z,13.60
2019-02-16T18:56:03.566Z,13.53
2019-02-16T18:58:51.872Z,13.44
2019-02-16T19:01:39.985Z,13.35
2019-02-16T19:04:26.229Z,13.26
2019-02-16T19:07:02.422Z,13.17
2019-02-16T19:09:56.673Z,13.08
2019-02-16T19:12:51.839Z,12.96
2019-02-16T19:15:29.180Z,12.86
2019-02-16T19:18:18.043Z,12.78
2019-02-16T19:20:58.753Z,12.70
2019-02-16T19:23:46.414Z,12.63
2019-02-16T19:26:32.812Z,12.56
2019-02-16T19:29:23.965Z,12.49
2019-02-16T19:31:58.520Z,12.39
2019-02-16T19:34:46.631Z,12.32
2019-02-16T19:37:37.683Z,12.26
2019-02-16T19:40:14.242Z,12.19
2019-02-16T19:43:02.006Z,12.13
2019-02-16T19:45:48.446Z,12.07
2019-02-16T19:48:44.783Z,12.00
2019-02-16T19:51:35.442Z,11.93
2019-02-16T19:54:11.513Z,11.86
2019-02-16T19:57:06.980Z,11.78
2019-02-16T19:59:57.514Z,11.74
2019-02-16T20:02:37.234Z,11.67
2019-02-16T20:05:26.215Z,11.60
2019-02-16T20:08:11.124Z,11.55
2019-02-16T20:10:59.195Z,11.48
2019-02-16T20:13:46.036Z,11.44
2019-02-16T20:16:27.527Z,11.37
2019-02-16T20:19:07.232Z,11.31
2019-02-16T20:21:48.648Z,11.25
2019-02-16T20:24:42.437Z,11.19
2019-02-16T20:27:39.221Z,11.15
2019-02-16T20:30:30.605Z,11.09
2019-02-16T20:33:18.579Z,11.04
2019-02-16T20:35:59.247Z,11.01
2019-02-16T20:38:37.660Z,10.97
2019-02-16T20:41:33.417Z,10.96
2019-02-16T20:44:12.211Z,10.93
2019-02-16T20:46:45.249Z,10.90
2019-02-16T20:49:29.566Z,10.89
2019-02-16T20:52:29.218Z,10.86
2019-02-16T20:55:03.071Z,10.82
2019-02-16T20:57:51.352Z,10.76
2019-02-16T21:00:39.172Z,10.76
2019-02-16T21:03:29.068Z,10.70
2019-02-16T21:06:16.772Z,10.63
2019-02-16T21:09:13.418Z,10.57
2019-02-16T21:11:53.015Z,10.54
2019-02-16T21:14:28.088Z,10.49
2019-02-16T21:17:12.312Z,10.43
2019-02-16T21:20:03.095Z,10.38
2019-02-16T21:22:55.810Z,10.35
2019-02-16T21:25:30.522Z,10.33
2019-02-16T21:28:24.508Z,10.29
2019-02-16T21:31:01.113Z,10.28
2019-02-16T21:33:43.805Z,10.24
2019-02-16T21:36:26.629Z,10.19
2019-02-16T21:39:17.255Z,10.15
2019-02-16T21:42:04.991Z,10.10
2019-02-16T21:44:44.256Z,10.05
2019-02-16T21:47:30.528Z,10.00
2019-02-16T21:50:30.402Z,9.96
2019-02-16T21:53:08.421Z,9.93
2019-02-16T21:56:01.293Z,9.89
2019-02-16T21:59:08.155Z,9.87
2019-02-16T22:01:45.182Z,9.81
2019-02-16T22:04:31.557Z,9.78
2019-02-16T22:07:08.664Z,9.74
2019-02-16T22:09:56.338Z,9.71
2019-02-16T22:13:02.559Z,9.68
2019-02-16T22:15:31.019Z,9.67
2019-02-16T22:17:59.791Z,9.62
2019-02-16T22:20:29.080Z,9.60
2019-02-16T22:22:57.201Z,9.57
2019-02-16T22:25:25.298Z,9.53
2019-02-16T22:27:53.412Z,9.48
2019-02-16T22:30:21.710Z,9.45
2019-02-16T22:32:49.769Z,9.44
2019-02-16T22:35:18.104Z,9.42
2019-02-16T22:37:47.395Z,9.42
2019-02-16T22:40:15.588Z,9.40
2019-02-16T22:42:43.653Z,9.39
2019-02-16T22:45:11.771Z,9.39
2019-02-16T22:47:40.104Z,9.37
2019-02-16T22:50:09.767Z,9.34
2019-02-16T22:52:38.650Z,9.31
2019-02-16T22:55:08.940Z,9.30
2019-02-16T22:57:37.002Z,9.29
2019-02-16T23:00:10.342Z,9.26
2019-02-16T23:02:40.039Z,9.25
2019-02-16T23:05:09.416Z,9.24
2019-02-16T23:07:37.779Z,9.22
2019-02-16T23:10:07.302Z,9.19
2019-02-16T23:12:36.013Z,9.18
2019-02-16T23:15:06.238Z,9.15
2019-02-16T23:17:34.490Z,9.13
2019-02-16T23:20:03.419Z,9.11
2019-02-16T23:22:31.564Z,9.07
2019-02-16T23:24:59.611Z,9.03
2019-02-16T23:27:27.643Z,9.02
2019-02-16T23:29:55.791Z,9.00
2019-02-16T23:32:23.833Z,8.96
2019-02-16T23:34:51.894Z,8.94
2019-02-16T23:37:19.954Z,8.92
2019-02-16T23:39:49.940Z,8.89
2019-02-16T23:42:18.237Z,8.87
2019-02-16T23:44:46.304Z,8.82
2019-02-16T23:47:14.361Z,8.80
2019-02-16T23:49:42.728Z,8.74
2019-02-16T23:52:11.300Z,8.72
2019-02-16T23:54:39.331Z,8.71
2019-02-16T23:57:10.067Z,8.68
2019-02-16T23:59:38.099Z,8.68
